sensor_id;sensor_type;location;lat;lon;timestamp;P1;durP1;ratioP1;P2;durP2;ratioP2
36747;SDS011;22716;51.556;5.080;2023-12-22T00:01:09;10.18;;;2.88;;
36747;SDS011;22716;51.556;5.080;2023-12-22T00:03:40;9.83;;;3.40;;
36747;SDS011;22716;51.556;5.080;2023-12-22T00:06:11;12.48;;;3.10;;
36747;SDS011;22716;51.556;5.080;2023-12-22T00:08:40;9.93;;;2.55;;
36747;SDS011;22716;51.556;5.080;2023-12-22T00:11:08;13.15;;;2.50;;
36747;SDS011;22716;51.556;5.080;2023-12-22T00:13:37;13.82;;;3.33;;
36747;SDS011;22716;51.556;5.080;2023-12-22T00:16:05;13.38;;;3.47;;
36747;SDS011;22716;51.556;5.080;2023-12-22T00:18:37;14.23;;;2.83;;
36747;SDS011;22716;51.556;5.080;2023-12-22T00:21:09;13.55;;;2.97;;
36747;SDS011;22716;51.556;5.080;2023-12-22T00:23:37;9.07;;;2.87;;
36747;SDS011;22716;51.556;5.080;2023-12-22T00:26:06;14.73;;;4.23;;
36747;SDS011;22716;51.556;5.080;2023-12-22T00:28:35;13.20;;;3.43;;
36747;SDS011;22716;51.556;5.080;2023-12-22T00:31:03;17.67;;;3.03;;
36747;SDS011;22716;51.556;5.080;2023-12-22T00:33:34;13.98;;;2.88;;
36747;SDS011;22716;51.556;5.080;2023-12-22T00:36:03;16.13;;;3.92;;
36747;SDS011;22716;51.556;5.080;2023-12-22T00:38:32;7.65;;;2.40;;
36747;SDS011;22716;51.556;5.080;2023-12-22T00:41:01;11.38;;;2.50;;
36747;SDS011;22716;51.556;5.080;2023-12-22T00:43:30;15.70;;;3.35;;
36747;SDS011;22716;51.556;5.080;2023-12-22T00:45:58;14.77;;;3.30;;
36747;SDS011;22716;51.556;5.080;2023-12-22T00:48:27;12.95;;;3.65;;
36747;SDS011;22716;51.556;5.080;2023-12-22T00:50:56;15.30;;;4.57;;
36747;SDS011;22716;51.556;5.080;2023-12-22T00:53:25;9.27;;;2.85;;
36747;SDS011;22716;51.556;5.080;2023-12-22T00:55:53;11.93;;;2.92;;
36747;SDS011;22716;51.556;5.080;2023-12-22T00:58:22;11.15;;;3.00;;
36747;SDS011;22716;51.556;5.080;2023-12-22T01:00:50;12.90;;;2.90;;
36747;SDS011;22716;51.556;5.080;2023-12-22T01:03:19;6.38;;;2.42;;
36747;SDS011;22716;51.556;5.080;2023-12-22T01:05:47;11.90;;;2.70;;
36747;SDS011;22716;51.556;5.080;2023-12-22T01:08:18;7.32;;;2.78;;
36747;SDS011;22716;51.556;5.080;2023-12-22T01:10:47;10.00;;;2.90;;
36747;SDS011;22716;51.556;5.080;2023-12-22T01:13:15;16.17;;;3.88;;
36747;SDS011;22716;51.556;5.080;2023-12-22T01:15:44;10.87;;;1.80;;
36747;SDS011;22716;51.556;5.080;2023-12-22T01:18:13;13.35;;;2.60;;
36747;SDS011;22716;51.556;5.080;2023-12-22T01:20:41;12.93;;;3.15;;
36747;SDS011;22716;51.556;5.080;2023-12-22T01:23:10;9.80;;;3.77;;
36747;SDS011;22716;51.556;5.080;2023-12-22T01:25:41;11.95;;;3.58;;
36747;SDS011;22716;51.556;5.080;2023-12-22T01:28:10;8.45;;;2.20;;
36747;SDS011;22716;51.556;5.080;2023-12-22T01:30:38;10.13;;;3.23;;
36747;SDS011;22716;51.556;5.080;2023-12-22T01:33:07;11.68;;;3.10;;
36747;SDS011;22716;51.556;5.080;2023-12-22T01:35:35;11.83;;;2.57;;
36747;SDS011;22716;51.556;5.080;2023-12-22T01:38:04;12.73;;;3.55;;
36747;SDS011;22716;51.556;5.080;2023-12-22T01:40:32;14.05;;;3.28;;
36747;SDS011;22716;51.556;5.080;2023-12-22T01:43:04;11.82;;;3.75;;
36747;SDS011;22716;51.556;5.080;2023-12-22T01:45:32;18.50;;;3.57;;
36747;SDS011;22716;51.556;5.080;2023-12-22T01:48:01;9.35;;;2.90;;
36747;SDS011;22716;51.556;5.080;2023-12-22T01:50:31;17.87;;;3.53;;
36747;SDS011;22716;51.556;5.080;2023-12-22T01:53:01;10.10;;;3.60;;
36747;SDS011;22716;51.556;5.080;2023-12-22T01:55:30;12.07;;;2.87;;
36747;SDS011;22716;51.556;5.080;2023-12-22T01:57:59;10.13;;;2.60;;
36747;SDS011;22716;51.556;5.080;2023-12-22T02:00:30;9.13;;;2.40;;
36747;SDS011;22716;51.556;5.080;2023-12-22T02:02:59;12.70;;;2.95;;
36747;SDS011;22716;51.556;5.080;2023-12-22T02:05:28;12.93;;;2.90;;
36747;SDS011;22716;51.556;5.080;2023-12-22T02:07:57;11.30;;;3.53;;
36747;SDS011;22716;51.556;5.080;2023-12-22T02:10:25;18.17;;;3.92;;
36747;SDS011;22716;51.556;5.080;2023-12-22T02:12:54;15.85;;;3.25;;
36747;SDS011;22716;51.556;5.080;2023-12-22T02:15:23;15.83;;;2.63;;
36747;SDS011;22716;51.556;5.080;2023-12-22T02:17:58;14.00;;;2.88;;
36747;SDS011;22716;51.556;5.080;2023-12-22T02:20:31;10.73;;;3.88;;
36747;SDS011;22716;51.556;5.080;2023-12-22T02:23:03;23.73;;;4.50;;
36747;SDS011;22716;51.556;5.080;2023-12-22T02:25:31;18.77;;;4.27;;
36747;SDS011;22716;51.556;5.080;2023-12-22T02:28:01;10.80;;;3.27;;
36747;SDS011;22716;51.556;5.080;2023-12-22T02:30:34;12.43;;;3.72;;
36747;SDS011;22716;51.556;5.080;2023-12-22T02:33:10;11.80;;;2.93;;
36747;SDS011;22716;51.556;5.080;2023-12-22T02:35:43;10.75;;;2.83;;
36747;SDS011;22716;51.556;5.080;2023-12-22T02:38:16;12.30;;;3.08;;
36747;SDS011;22716;51.556;5.080;2023-12-22T02:40:46;15.95;;;4.72;;
36747;SDS011;22716;51.556;5.080;2023-12-22T02:43:15;12.63;;;3.63;;
36747;SDS011;22716;51.556;5.080;2023-12-22T02:45:44;19.60;;;4.05;;
36747;SDS011;22716;51.556;5.080;2023-12-22T02:48:12;14.37;;;3.77;;
36747;SDS011;22716;51.556;5.080;2023-12-22T02:50:41;16.60;;;3.87;;
36747;SDS011;22716;51.556;5.080;2023-12-22T02:53:09;15.37;;;4.47;;
36747;SDS011;22716;51.556;5.080;2023-12-22T02:55:40;22.00;;;5.95;;
36747;SDS011;22716;51.556;5.080;2023-12-22T02:58:09;15.13;;;2.80;;
36747;SDS011;22716;51.556;5.080;2023-12-22T03:00:38;8.10;;;2.85;;
36747;SDS011;22716;51.556;5.080;2023-12-22T03:03:06;15.20;;;2.47;;
36747;SDS011;22716;51.556;5.080;2023-12-22T03:05:35;16.20;;;4.13;;
36747;SDS011;22716;51.556;5.080;2023-12-22T03:08:03;10.57;;;3.30;;
36747;SDS011;22716;51.556;5.080;2023-12-22T03:10:32;10.07;;;2.60;;
36747;SDS011;22716;51.556;5.080;2023-12-22T03:13:03;11.45;;;2.60;;
36747;SDS011;22716;51.556;5.080;2023-12-22T03:15:32;12.50;;;2.90;;
36747;SDS011;22716;51.556;5.080;2023-12-22T03:18:00;9.38;;;2.55;;
36747;SDS011;22716;51.556;5.080;2023-12-22T03:20:29;8.93;;;2.23;;
36747;SDS011;22716;51.556;5.080;2023-12-22T03:22:58;15.10;;;2.40;;
36747;SDS011;22716;51.556;5.080;2023-12-22T03:25:26;13.73;;;2.72;;
36747;SDS011;22716;51.556;5.080;2023-12-22T03:27:55;11.20;;;2.72;;
36747;SDS011;22716;51.556;5.080;2023-12-22T03:30:26;11.15;;;3.10;;
36747;SDS011;22716;51.556;5.080;2023-12-22T03:32:54;18.13;;;3.33;;
36747;SDS011;22716;51.556;5.080;2023-12-22T03:35:23;15.52;;;3.85;;
36747;SDS011;22716;51.556;5.080;2023-12-22T03:37:52;10.57;;;2.97;;
36747;SDS011;22716;51.556;5.080;2023-12-22T03:40:20;8.93;;;2.63;;
36747;SDS011;22716;51.556;5.080;2023-12-22T03:42:49;10.63;;;2.55;;
36747;SDS011;22716;51.556;5.080;2023-12-22T03:45:17;10.43;;;3.20;;
36747;SDS011;22716;51.556;5.080;2023-12-22T03:47:48;17.13;;;2.40;;
36747;SDS011;22716;51.556;5.080;2023-12-22T03:50:17;10.43;;;2.30;;
36747;SDS011;22716;51.556;5.080;2023-12-22T03:52:46;13.25;;;3.75;;
36747;SDS011;22716;51.556;5.080;2023-12-22T03:55:15;8.73;;;1.98;;
36747;SDS011;22716;51.556;5.080;2023-12-22T03:57:43;9.40;;;3.00;;
36747;SDS011;22716;51.556;5.080;2023-12-22T04:00:12;17.48;;;4.82;;
36747;SDS011;22716;51.556;5.080;2023-12-22T04:02:42;9.48;;;3.65;;
36747;SDS011;22716;51.556;5.080;2023-12-22T04:05:14;13.68;;;3.35;;
36747;SDS011;22716;51.556;5.080;2023-12-22T04:07:42;14.23;;;3.30;;
36747;SDS011;22716;51.556;5.080;2023-12-22T04:10:11;15.77;;;3.88;;
36747;SDS011;22716;51.556;5.080;2023-12-22T04:12:39;9.82;;;2.88;;
36747;SDS011;22716;51.556;5.080;2023-12-22T04:15:08;11.85;;;3.40;;
36747;SDS011;22716;51.556;5.080;2023-12-22T04:17:36;9.68;;;2.58;;
36747;SDS011;22716;51.556;5.080;2023-12-22T04:20:06;13.13;;;3.58;;
36747;SDS011;22716;51.556;5.080;2023-12-22T04:22:38;21.55;;;3.50;;
36747;SDS011;22716;51.556;5.080;2023-12-22T04:25:07;9.50;;;2.73;;
36747;SDS011;22716;51.556;5.080;2023-12-22T04:27:35;11.18;;;3.17;;
36747;SDS011;22716;51.556;5.080;2023-12-22T04:30:04;9.48;;;3.17;;
36747;SDS011;22716;51.556;5.080;2023-12-22T04:32:34;9.45;;;2.50;;
36747;SDS011;22716;51.556;5.080;2023-12-22T04:35:03;15.38;;;3.20;;
36747;SDS011;22716;51.556;5.080;2023-12-22T04:37:32;9.00;;;1.98;;
36747;SDS011;22716;51.556;5.080;2023-12-22T04:40:04;8.48;;;2.70;;
36747;SDS011;22716;51.556;5.080;2023-12-22T04:42:34;8.77;;;2.58;;
36747;SDS011;22716;51.556;5.080;2023-12-22T04:45:02;18.02;;;3.40;;
36747;SDS011;22716;51.556;5.080;2023-12-22T04:47:32;10.63;;;2.42;;
36747;SDS011;22716;51.556;5.080;2023-12-22T04:50:00;13.93;;;4.47;;
36747;SDS011;22716;51.556;5.080;2023-12-22T04:52:29;17.77;;;4.25;;
36747;SDS011;22716;51.556;5.080;2023-12-22T04:54:57;13.90;;;4.00;;
36747;SDS011;22716;51.556;5.080;2023-12-22T04:57:29;20.93;;;5.50;;
36747;SDS011;22716;51.556;5.080;2023-12-22T04:59:57;15.43;;;3.83;;
36747;SDS011;22716;51.556;5.080;2023-12-22T05:02:26;18.23;;;4.53;;
36747;SDS011;22716;51.556;5.080;2023-12-22T05:04:54;23.15;;;4.50;;
36747;SDS011;22716;51.556;5.080;2023-12-22T05:07:23;21.52;;;4.47;;
36747;SDS011;22716;51.556;5.080;2023-12-22T05:09:53;17.00;;;3.47;;
36747;SDS011;22716;51.556;5.080;2023-12-22T05:12:21;13.13;;;3.35;;
36747;SDS011;22716;51.556;5.080;2023-12-22T05:14:52;20.48;;;3.78;;
36747;SDS011;22716;51.556;5.080;2023-12-22T05:17:21;19.95;;;4.30;;
36747;SDS011;22716;51.556;5.080;2023-12-22T05:19:49;17.45;;;4.15;;
36747;SDS011;22716;51.556;5.080;2023-12-22T05:22:18;31.53;;;6.33;;
36747;SDS011;22716;51.556;5.080;2023-12-22T05:24:46;21.53;;;6.87;;
36747;SDS011;22716;51.556;5.080;2023-12-22T05:27:15;25.70;;;5.75;;
36747;SDS011;22716;51.556;5.080;2023-12-22T05:29:44;21.33;;;6.50;;
36747;SDS011;22716;51.556;5.080;2023-12-22T05:32:15;26.27;;;6.03;;
36747;SDS011;22716;51.556;5.080;2023-12-22T05:34:44;24.00;;;7.10;;
36747;SDS011;22716;51.556;5.080;2023-12-22T05:37:12;18.20;;;4.40;;
36747;SDS011;22716;51.556;5.080;2023-12-22T05:39:41;28.10;;;5.60;;
36747;SDS011;22716;51.556;5.080;2023-12-22T05:42:10;25.65;;;6.40;;
36747;SDS011;22716;51.556;5.080;2023-12-22T05:44:39;18.47;;;6.20;;
36747;SDS011;22716;51.556;5.080;2023-12-22T05:47:07;18.10;;;5.50;;
36747;SDS011;22716;51.556;5.080;2023-12-22T05:49:39;24.92;;;5.13;;
36747;SDS011;22716;51.556;5.080;2023-12-22T05:52:08;18.52;;;6.68;;
36747;SDS011;22716;51.556;5.080;2023-12-22T05:54:37;18.08;;;6.20;;
36747;SDS011;22716;51.556;5.080;2023-12-22T05:57:06;25.50;;;5.95;;
36747;SDS011;22716;51.556;5.080;2023-12-22T05:59:35;24.05;;;5.25;;
36747;SDS011;22716;51.556;5.080;2023-12-22T06:02:03;26.15;;;6.82;;
36747;SDS011;22716;51.556;5.080;2023-12-22T06:04:32;21.80;;;4.72;;
36747;SDS011;22716;51.556;5.080;2023-12-22T06:07:03;29.03;;;5.77;;
36747;SDS011;22716;51.556;5.080;2023-12-22T06:09:30;16.42;;;6.50;;
36747;SDS011;22716;51.556;5.080;2023-12-22T06:11:58;30.47;;;9.37;;
36747;SDS011;22716;51.556;5.080;2023-12-22T06:14:27;25.40;;;8.07;;
36747;SDS011;22716;51.556;5.080;2023-12-22T06:16:56;27.10;;;6.57;;
36747;SDS011;22716;51.556;5.080;2023-12-22T06:19:25;22.20;;;5.82;;
36747;SDS011;22716;51.556;5.080;2023-12-22T06:21:56;32.53;;;7.93;;
36747;SDS011;22716;51.556;5.080;2023-12-22T06:24:28;25.00;;;7.07;;
36747;SDS011;22716;51.556;5.080;2023-12-22T06:26:56;28.73;;;7.63;;
36747;SDS011;22716;51.556;5.080;2023-12-22T06:29:25;20.17;;;6.80;;
36747;SDS011;22716;51.556;5.080;2023-12-22T06:31:53;21.83;;;6.78;;
36747;SDS011;22716;51.556;5.080;2023-12-22T06:34:22;22.85;;;5.40;;
36747;SDS011;22716;51.556;5.080;2023-12-22T06:36:51;25.20;;;5.80;;
36747;SDS011;22716;51.556;5.080;2023-12-22T06:39:19;23.10;;;6.28;;
36747;SDS011;22716;51.556;5.080;2023-12-22T06:41:50;25.45;;;7.32;;
36747;SDS011;22716;51.556;5.080;2023-12-22T06:44:19;24.80;;;5.82;;
36747;SDS011;22716;51.556;5.080;2023-12-22T06:46:47;28.10;;;6.82;;
36747;SDS011;22716;51.556;5.080;2023-12-22T06:49:16;26.77;;;6.07;;
36747;SDS011;22716;51.556;5.080;2023-12-22T06:51:44;31.08;;;8.00;;
36747;SDS011;22716;51.556;5.080;2023-12-22T06:54:13;19.92;;;5.90;;
36747;SDS011;22716;51.556;5.080;2023-12-22T06:56:41;27.45;;;6.07;;
36747;SDS011;22716;51.556;5.080;2023-12-22T06:59:13;28.40;;;7.22;;
36747;SDS011;22716;51.556;5.080;2023-12-22T07:01:41;26.92;;;6.72;;
36747;SDS011;22716;51.556;5.080;2023-12-22T07:04:10;27.77;;;7.53;;
36747;SDS011;22716;51.556;5.080;2023-12-22T07:06:38;19.48;;;5.50;;
36747;SDS011;22716;51.556;5.080;2023-12-22T07:11:58;33.15;;;6.03;;
36747;SDS011;22716;51.556;5.080;2023-12-22T07:14:31;18.63;;;7.10;;
36747;SDS011;22716;51.556;5.080;2023-12-22T07:17:00;23.58;;;6.97;;
36747;SDS011;22716;51.556;5.080;2023-12-22T07:19:29;19.38;;;4.93;;
36747;SDS011;22716;51.556;5.080;2023-12-22T07:21:57;20.42;;;6.35;;
36747;SDS011;22716;51.556;5.080;2023-12-22T07:24:27;28.00;;;6.07;;
36747;SDS011;22716;51.556;5.080;2023-12-22T07:26:56;25.45;;;7.20;;
36747;SDS011;22716;51.556;5.080;2023-12-22T07:29:24;32.15;;;8.07;;
36747;SDS011;22716;51.556;5.080;2023-12-22T07:31:58;23.97;;;6.53;;
36747;SDS011;22716;51.556;5.080;2023-12-22T07:34:27;26.30;;;6.10;;
36747;SDS011;22716;51.556;5.080;2023-12-22T07:36:55;33.05;;;5.50;;
36747;SDS011;22716;51.556;5.080;2023-12-22T07:39:24;30.77;;;7.60;;
36747;SDS011;22716;51.556;5.080;2023-12-22T07:41:53;25.40;;;6.03;;
36747;SDS011;22716;51.556;5.080;2023-12-22T07:44:21;28.52;;;4.70;;
36747;SDS011;22716;51.556;5.080;2023-12-22T07:46:58;30.23;;;7.00;;
36747;SDS011;22716;51.556;5.080;2023-12-22T07:49:27;29.73;;;5.88;;
36747;SDS011;22716;51.556;5.080;2023-12-22T07:51:56;23.93;;;7.07;;
36747;SDS011;22716;51.556;5.080;2023-12-22T07:54:25;18.90;;;4.88;;
36747;SDS011;22716;51.556;5.080;2023-12-22T07:56:53;28.45;;;5.82;;
36747;SDS011;22716;51.556;5.080;2023-12-22T07:59:22;23.27;;;6.30;;
36747;SDS011;22716;51.556;5.080;2023-12-22T08:01:51;21.23;;;4.93;;
36747;SDS011;22716;51.556;5.080;2023-12-22T08:04:22;29.10;;;5.47;;
36747;SDS011;22716;51.556;5.080;2023-12-22T08:06:50;16.60;;;4.55;;
36747;SDS011;22716;51.556;5.080;2023-12-22T08:09:19;21.73;;;4.75;;
36747;SDS011;22716;51.556;5.080;2023-12-22T08:11:48;23.50;;;4.85;;
36747;SDS011;22716;51.556;5.080;2023-12-22T08:14:18;21.92;;;4.63;;
36747;SDS011;22716;51.556;5.080;2023-12-22T08:16:47;24.45;;;5.45;;
36747;SDS011;22716;51.556;5.080;2023-12-22T08:19:15;14.25;;;4.10;;
36747;SDS011;22716;51.556;5.080;2023-12-22T08:21:47;19.35;;;5.03;;
36747;SDS011;22716;51.556;5.080;2023-12-22T08:24:15;15.65;;;3.22;;
36747;SDS011;22716;51.556;5.080;2023-12-22T08:26:44;18.48;;;4.43;;
36747;SDS011;22716;51.556;5.080;2023-12-22T08:29:12;16.97;;;4.60;;
36747;SDS011;22716;51.556;5.080;2023-12-22T08:31:38;17.00;;;4.45;;
36747;SDS011;22716;51.556;5.080;2023-12-22T08:34:07;12.60;;;2.87;;
36747;SDS011;22716;51.556;5.080;2023-12-22T08:36:35;5.50;;;2.67;;
36747;SDS011;22716;51.556;5.080;2023-12-22T08:39:06;12.23;;;2.92;;
36747;SDS011;22716;51.556;5.080;2023-12-22T08:41:35;7.43;;;2.13;;
36747;SDS011;22716;51.556;5.080;2023-12-22T08:44:05;10.55;;;3.03;;
36747;SDS011;22716;51.556;5.080;2023-12-22T08:46:34;10.35;;;3.13;;
36747;SDS011;22716;51.556;5.080;2023-12-22T08:49:03;6.38;;;2.63;;
36747;SDS011;22716;51.556;5.080;2023-12-22T08:51:31;14.63;;;3.30;;
36747;SDS011;22716;51.556;5.080;2023-12-22T08:54:00;7.90;;;2.08;;
36747;SDS011;22716;51.556;5.080;2023-12-22T08:56:32;9.05;;;2.10;;
36747;SDS011;22716;51.556;5.080;2023-12-22T08:59:00;9.50;;;2.33;;
36747;SDS011;22716;51.556;5.080;2023-12-22T09:01:29;7.68;;;2.03;;
36747;SDS011;22716;51.556;5.080;2023-12-22T09:03:57;13.67;;;2.80;;
36747;SDS011;22716;51.556;5.080;2023-12-22T09:06:27;7.13;;;2.38;;
36747;SDS011;22716;51.556;5.080;2023-12-22T09:08:55;6.28;;;1.75;;
36747;SDS011;22716;51.556;5.080;2023-12-22T09:11:24;11.10;;;1.90;;
36747;SDS011;22716;51.556;5.080;2023-12-22T09:13:56;9.95;;;2.00;;
36747;SDS011;22716;51.556;5.080;2023-12-22T09:16:24;8.27;;;2.40;;
36747;SDS011;22716;51.556;5.080;2023-12-22T09:18:53;14.00;;;2.45;;
36747;SDS011;22716;51.556;5.080;2023-12-22T09:21:21;7.53;;;2.13;;
36747;SDS011;22716;51.556;5.080;2023-12-22T09:23:50;4.25;;;1.83;;
36747;SDS011;22716;51.556;5.080;2023-12-22T09:26:19;6.72;;;2.17;;
36747;SDS011;22716;51.556;5.080;2023-12-22T09:28:48;8.13;;;1.88;;
36747;SDS011;22716;51.556;5.080;2023-12-22T09:31:19;11.15;;;1.95;;
36747;SDS011;22716;51.556;5.080;2023-12-22T09:33:48;3.00;;;1.10;;
36747;SDS011;22716;51.556;5.080;2023-12-22T09:36:16;7.30;;;1.80;;
36747;SDS011;22716;51.556;5.080;2023-12-22T09:38:46;4.85;;;1.60;;
36747;SDS011;22716;51.556;5.080;2023-12-22T09:41:15;5.55;;;1.63;;
36747;SDS011;22716;51.556;5.080;2023-12-22T09:43:44;5.53;;;1.15;;
36747;SDS011;22716;51.556;5.080;2023-12-22T09:46:20;7.20;;;1.60;;
36747;SDS011;22716;51.556;5.080;2023-12-22T09:48:52;1.98;;;1.30;;
36747;SDS011;22716;51.556;5.080;2023-12-22T09:51:21;6.80;;;2.63;;
36747;SDS011;22716;51.556;5.080;2023-12-22T09:53:51;3.03;;;1.15;;
36747;SDS011;22716;51.556;5.080;2023-12-22T09:56:21;13.80;;;1.55;;
36747;SDS011;22716;51.556;5.080;2023-12-22T09:58:52;6.93;;;1.90;;
36747;SDS011;22716;51.556;5.080;2023-12-22T10:01:25;4.28;;;1.20;;
36747;SDS011;22716;51.556;5.080;2023-12-22T10:03:56;8.05;;;3.00;;
36747;SDS011;22716;51.556;5.080;2023-12-22T10:06:25;4.90;;;1.27;;
36747;SDS011;22716;51.556;5.080;2023-12-22T10:08:54;9.13;;;1.92;;
36747;SDS011;22716;51.556;5.080;2023-12-22T10:11:23;4.45;;;2.00;;
36747;SDS011;22716;51.556;5.080;2023-12-22T10:13:53;8.75;;;2.08;;
36747;SDS011;22716;51.556;5.080;2023-12-22T10:16:26;6.30;;;2.20;;
36747;SDS011;22716;51.556;5.080;2023-12-22T10:18:56;5.45;;;1.88;;
36747;SDS011;22716;51.556;5.080;2023-12-22T10:21:27;11.27;;;3.08;;
36747;SDS011;22716;51.556;5.080;2023-12-22T10:23:56;9.07;;;3.08;;
36747;SDS011;22716;51.556;5.080;2023-12-22T10:26:24;5.97;;;1.65;;
36747;SDS011;22716;51.556;5.080;2023-12-22T10:28:53;8.65;;;2.15;;
36747;SDS011;22716;51.556;5.080;2023-12-22T10:31:21;8.23;;;2.72;;
36747;SDS011;22716;51.556;5.080;2023-12-22T10:33:53;8.20;;;3.30;;
36747;SDS011;22716;51.556;5.080;2023-12-22T10:36:22;6.20;;;2.20;;
36747;SDS011;22716;51.556;5.080;2023-12-22T10:38:51;9.70;;;2.03;;
36747;SDS011;22716;51.556;5.080;2023-12-22T10:41:21;7.20;;;2.00;;
36747;SDS011;22716;51.556;5.080;2023-12-22T10:43:50;9.88;;;2.72;;
36747;SDS011;22716;51.556;5.080;2023-12-22T10:46:19;9.02;;;2.03;;
36747;SDS011;22716;51.556;5.080;2023-12-22T10:48:48;6.50;;;1.70;;
36747;SDS011;22716;51.556;5.080;2023-12-22T10:51:23;5.80;;;3.00;;
36747;SDS011;22716;51.556;5.080;2023-12-22T10:53:52;4.78;;;1.58;;
36747;SDS011;22716;51.556;5.080;2023-12-22T10:56:20;9.75;;;3.83;;
36747;SDS011;22716;51.556;5.080;2023-12-22T10:58:50;21.80;;;4.68;;
36747;SDS011;22716;51.556;5.080;2023-12-22T11:01:20;5.95;;;2.38;;
36747;SDS011;22716;51.556;5.080;2023-12-22T11:03:51;6.50;;;1.40;;
36747;SDS011;22716;51.556;5.080;2023-12-22T11:06:23;7.72;;;2.60;;
36747;SDS011;22716;51.556;5.080;2023-12-22T11:08:54;9.35;;;1.52;;
36747;SDS011;22716;51.556;5.080;2023-12-22T11:11:27;7.40;;;2.55;;
36747;SDS011;22716;51.556;5.080;2023-12-22T11:13:59;8.93;;;2.42;;
36747;SDS011;22716;51.556;5.080;2023-12-22T11:16:28;8.02;;;2.95;;
36747;SDS011;22716;51.556;5.080;2023-12-22T11:18:59;8.63;;;2.50;;
36747;SDS011;22716;51.556;5.080;2023-12-22T11:21:31;3.70;;;1.13;;
36747;SDS011;22716;51.556;5.080;2023-12-22T11:24:00;8.88;;;1.95;;
36747;SDS011;22716;51.556;5.080;2023-12-22T11:26:30;10.73;;;1.92;;
36747;SDS011;22716;51.556;5.080;2023-12-22T11:29:00;6.32;;;1.70;;
36747;SDS011;22716;51.556;5.080;2023-12-22T11:31:32;9.77;;;3.58;;
36747;SDS011;22716;51.556;5.080;2023-12-22T11:34:02;5.70;;;2.03;;
36747;SDS011;22716;51.556;5.080;2023-12-22T11:36:35;7.53;;;2.25;;
36747;SDS011;22716;51.556;5.080;2023-12-22T11:39:06;8.80;;;2.13;;
36747;SDS011;22716;51.556;5.080;2023-12-22T11:41:35;3.88;;;1.48;;
36747;SDS011;22716;51.556;5.080;2023-12-22T11:44:06;4.82;;;1.70;;
36747;SDS011;22716;51.556;5.080;2023-12-22T11:46:35;5.80;;;1.25;;
36747;SDS011;22716;51.556;5.080;2023-12-22T11:49:04;7.30;;;1.77;;
36747;SDS011;22716;51.556;5.080;2023-12-22T11:51:36;6.28;;;2.42;;
36747;SDS011;22716;51.556;5.080;2023-12-22T11:54:13;6.53;;;1.27;;
36747;SDS011;22716;51.556;5.080;2023-12-22T11:57:34;7.35;;;1.48;;
36747;SDS011;22716;51.556;5.080;2023-12-22T12:00:07;5.75;;;1.55;;
36747;SDS011;22716;51.556;5.080;2023-12-22T12:03:02;8.35;;;1.90;;
36747;SDS011;22716;51.556;5.080;2023-12-22T12:05:34;6.68;;;2.30;;
36747;SDS011;22716;51.556;5.080;2023-12-22T12:08:08;3.67;;;1.90;;
36747;SDS011;22716;51.556;5.080;2023-12-22T12:10:51;5.78;;;1.55;;
36747;SDS011;22716;51.556;5.080;2023-12-22T12:13:22;5.13;;;1.60;;
36747;SDS011;22716;51.556;5.080;2023-12-22T12:15:52;8.50;;;1.73;;
36747;SDS011;22716;51.556;5.080;2023-12-22T12:18:26;5.25;;;1.50;;
36747;SDS011;22716;51.556;5.080;2023-12-22T12:20:56;11.52;;;1.70;;
36747;SDS011;22716;51.556;5.080;2023-12-22T12:23:27;7.45;;;1.30;;
36747;SDS011;22716;51.556;5.080;2023-12-22T12:25:56;6.20;;;1.75;;
36747;SDS011;22716;51.556;5.080;2023-12-22T12:28:25;5.25;;;2.00;;
36747;SDS011;22716;51.556;5.080;2023-12-22T12:31:00;6.38;;;2.28;;
36747;SDS011;22716;51.556;5.080;2023-12-22T12:33:30;9.75;;;1.70;;
36747;SDS011;22716;51.556;5.080;2023-12-22T12:35:59;10.23;;;3.30;;
36747;SDS011;22716;51.556;5.080;2023-12-22T12:38:40;10.63;;;2.25;;
36747;SDS011;22716;51.556;5.080;2023-12-22T12:41:13;10.38;;;1.67;;
36747;SDS011;22716;51.556;5.080;2023-12-22T12:43:49;13.00;;;3.05;;
36747;SDS011;22716;51.556;5.080;2023-12-22T12:46:19;7.35;;;1.92;;
36747;SDS011;22716;51.556;5.080;2023-12-22T12:48:48;12.38;;;2.42;;
36747;SDS011;22716;51.556;5.080;2023-12-22T12:51:16;9.68;;;3.50;;
36747;SDS011;22716;51.556;5.080;2023-12-22T12:53:48;8.07;;;2.17;;
36747;SDS011;22716;51.556;5.080;2023-12-22T12:56:17;8.30;;;1.77;;
36747;SDS011;22716;51.556;5.080;2023-12-22T12:58:46;14.05;;;2.33;;
36747;SDS011;22716;51.556;5.080;2023-12-22T13:01:15;8.18;;;2.10;;
36747;SDS011;22716;51.556;5.080;2023-12-22T13:03:53;9.90;;;2.35;;
36747;SDS011;22716;51.556;5.080;2023-12-22T13:06:23;9.82;;;2.45;;
36747;SDS011;22716;51.556;5.080;2023-12-22T13:08:54;8.45;;;2.03;;
36747;SDS011;22716;51.556;5.080;2023-12-22T13:11:23;5.95;;;2.10;;
36747;SDS011;22716;51.556;5.080;2023-12-22T13:13:54;8.15;;;2.15;;
36747;SDS011;22716;51.556;5.080;2023-12-22T13:16:23;16.85;;;2.00;;
36747;SDS011;22716;51.556;5.080;2023-12-22T13:18:55;10.18;;;2.92;;
36747;SDS011;22716;51.556;5.080;2023-12-22T13:21:25;6.45;;;2.28;;
36747;SDS011;22716;51.556;5.080;2023-12-22T13:24:13;5.63;;;1.95;;
36747;SDS011;22716;51.556;5.080;2023-12-22T13:26:43;4.13;;;1.58;;
36747;SDS011;22716;51.556;5.080;2023-12-22T13:29:13;5.57;;;2.15;;
36747;SDS011;22716;51.556;5.080;2023-12-22T13:31:42;4.57;;;1.80;;
36747;SDS011;22716;51.556;5.080;2023-12-22T13:34:11;9.45;;;2.35;;
36747;SDS011;22716;51.556;5.080;2023-12-22T13:36:40;6.85;;;1.83;;
36747;SDS011;22716;51.556;5.080;2023-12-22T13:39:12;6.97;;;1.85;;
36747;SDS011;22716;51.556;5.080;2023-12-22T13:41:41;5.80;;;1.80;;
36747;SDS011;22716;51.556;5.080;2023-12-22T13:44:11;2.93;;;1.53;;
36747;SDS011;22716;51.556;5.080;2023-12-22T13:46:40;8.95;;;2.30;;
36747;SDS011;22716;51.556;5.080;2023-12-22T13:49:11;6.63;;;1.88;;
36747;SDS011;22716;51.556;5.080;2023-12-22T13:51:40;12.10;;;2.25;;
36747;SDS011;22716;51.556;5.080;2023-12-22T13:54:12;8.57;;;2.58;;
36747;SDS011;22716;51.556;5.080;2023-12-22T13:56:40;10.88;;;2.35;;
36747;SDS011;22716;51.556;5.080;2023-12-22T13:59:11;11.93;;;2.55;;
36747;SDS011;22716;51.556;5.080;2023-12-22T14:01:40;10.30;;;2.65;;
36747;SDS011;22716;51.556;5.080;2023-12-22T14:04:08;11.63;;;3.13;;
36747;SDS011;22716;51.556;5.080;2023-12-22T14:06:37;10.52;;;3.55;;
36747;SDS011;22716;51.556;5.080;2023-12-22T14:09:06;9.15;;;2.33;;
36747;SDS011;22716;51.556;5.080;2023-12-22T14:11:37;6.53;;;1.90;;
36747;SDS011;22716;51.556;5.080;2023-12-22T14:14:06;4.82;;;1.73;;
36747;SDS011;22716;51.556;5.080;2023-12-22T14:16:37;9.30;;;3.22;;
36747;SDS011;22716;51.556;5.080;2023-12-22T14:19:05;10.07;;;2.55;;
36747;SDS011;22716;51.556;5.080;2023-12-22T14:21:34;6.30;;;1.58;;
36747;SDS011;22716;51.556;5.080;2023-12-22T14:24:02;6.90;;;2.00;;
36747;SDS011;22716;51.556;5.080;2023-12-22T14:26:31;9.07;;;2.60;;
36747;SDS011;22716;51.556;5.080;2023-12-22T14:29:02;13.60;;;3.13;;
36747;SDS011;22716;51.556;5.080;2023-12-22T14:31:31;8.82;;;2.08;;
36747;SDS011;22716;51.556;5.080;2023-12-22T14:33:59;12.20;;;2.17;;
36747;SDS011;22716;51.556;5.080;2023-12-22T14:36:28;11.20;;;2.08;;
36747;SDS011;22716;51.556;5.080;2023-12-22T14:38:56;9.43;;;2.40;;
36747;SDS011;22716;51.556;5.080;2023-12-22T14:41:25;8.85;;;2.67;;
36747;SDS011;22716;51.556;5.080;2023-12-22T14:43:53;7.60;;;2.25;;
36747;SDS011;22716;51.556;5.080;2023-12-22T14:46:24;8.30;;;2.40;;
36747;SDS011;22716;51.556;5.080;2023-12-22T14:48:53;6.38;;;2.20;;
36747;SDS011;22716;51.556;5.080;2023-12-22T14:51:22;7.82;;;1.65;;
36747;SDS011;22716;51.556;5.080;2023-12-22T14:53:51;6.28;;;1.65;;
36747;SDS011;22716;51.556;5.080;2023-12-22T14:56:19;2.65;;;1.48;;
36747;SDS011;22716;51.556;5.080;2023-12-22T14:58:48;8.35;;;2.30;;